Time;durP1;ratioP1;P1;durP2;ratioP2;P2;SDS_P1;SDS_P2;PMS_P1;PMS_P2;Temp;Humidity;BMP_temperature;BMP_pressure;BME280_temperature;BME280_humidity;BME280_pressure;Samples;Min_cycle;Max_cycle;Signal;HPM_P1;HPM_P2
2023/03/31 00:10:21;;;;;;;16.52;2.65;;;11.40;92.00;;;;;;4948826;28;85955;-76
2023/03/31 00:12:47;;;;;;;11.23;2.08;;;11.40;91.70;;;;;;4950312;28;86218;-76
2023/03/31 00:15:12;;;;;;;13.80;1.95;;;11.50;91.80;;;;;;4949320;28;86995;-77
2023/03/31 00:17:38;;;;;;;11.23;1.40;;;11.60;91.80;;;;;;4963684;28;89841;-76
2023/03/31 00:20:07;;;;;;;13.48;2.03;;;11.60;91.70;;;;;;4949420;28;86533;-77
2023/03/31 00:29:26;;;;;;;16.52;1.98;;;11.70;91.40;;;;;;4946645;28;85870;-77
2023/03/31 00:31:52;;;;;;;12.55;1.75;;;11.70;90.90;;;;;;4949651;28;85938;-77
2023/03/31 00:34:17;;;;;;;15.43;1.98;;;11.80;91.10;;;;;;4949837;28;86152;-76
2023/03/31 00:36:49;;;;;;;12.60;1.63;;;11.80;91.10;;;;;;4948540;28;87436;-77
2023/03/31 00:39:17;;;;;;;15.02;2.05;;;11.80;91.10;;;;;;4947389;28;93229;-76
2023/03/31 00:41:44;;;;;;;19.50;1.98;;;11.80;91.00;;;;;;4947565;28;85948;-76
2023/03/31 00:44:24;;;;;;;13.25;1.55;;;11.80;91.20;;;;;;4947215;28;87093;-76
2023/03/31 00:47:01;;;;;;;14.45;1.83;;;11.80;91.30;;;;;;4949491;28;87383;-77
2023/03/31 00:49:29;;;;;;;15.65;2.22;;;11.80;91.20;;;;;;4949514;28;86977;-76
2023/03/31 00:52:04;;;;;;;13.27;2.03;;;11.80;91.60;;;;;;4947444;28;85834;-76
2023/03/31 00:54:32;;;;;;;21.38;2.63;;;11.80;91.50;;;;;;4950851;28;85953;-77
2023/03/31 00:57:02;;;;;;;17.80;2.42;;;11.80;91.60;;;;;;4963121;28;90675;-77
2023/03/31 00:59:30;;;;;;;20.40;2.88;;;11.90;91.50;;;;;;4947154;28;87025;-77
2023/03/31 01:02:01;;;;;;;15.48;2.08;;;11.80;91.60;;;;;;4949519;28;86114;-76
2023/03/31 01:04:32;;;;;;;19.10;2.38;;;11.80;92.00;;;;;;4947519;28;86760;-76
2023/03/31 01:07:36;;;;;;;20.33;3.17;;;11.80;91.80;;;;;;4947580;28;87481;-76
2023/03/31 01:10:03;;;;;;;15.70;2.22;;;11.70;92.10;;;;;;4952831;28;88887;-76
2023/03/31 01:12:32;;;;;;;19.38;2.45;;;11.80;92.10;;;;;;4944027;28;86340;-76
2023/03/31 01:14:58;;;;;;;17.48;2.50;;;11.70;92.20;;;;;;4935761;28;86415;-76
2023/03/31 01:29:26;;;;;;;18.85;2.78;;;11.60;92.80;;;;;;4911533;28;86178;-76
2023/03/31 01:31:58;;;;;;;17.05;2.78;;;11.50;92.70;;;;;;4965703;28;89456;-76
2023/03/31 01:34:57;;;;;;;15.88;2.10;;;11.50;92.50;;;;;;4938153;28;87114;-76
2023/03/31 01:37:40;;;;;;;13.57;2.30;;;11.50;92.70;;;;;;4938544;28;86598;-76
2023/03/31 01:40:24;;;;;;;15.75;2.50;;;11.40;92.70;;;;;;4938320;28;86755;-76
2023/03/31 01:43:27;;;;;;;18.33;2.25;;;11.40;92.80;;;;;;4954189;28;90502;-76
2023/03/31 01:46:03;;;;;;;14.65;1.90;;;11.30;92.90;;;;;;4950070;28;86655;-76
2023/03/31 01:48:38;;;;;;;18.08;2.25;;;11.30;93.00;;;;;;4958742;28;86365;-76
2023/03/31 01:51:38;;;;;;;18.83;2.67;;;11.20;92.80;;;;;;4957811;28;86238;-77
2023/03/31 01:54:18;;;;;;;18.08;2.75;;;11.20;92.50;;;;;;4956313;28;87490;-77
2023/03/31 02:03:32;;;;;;;15.27;1.90;;;11.10;92.40;;;;;;4957110;28;87148;-76
2023/03/31 02:06:10;;;;;;;12.32;2.00;;;11.10;92.40;;;;;;4953104;28;87791;-76
2023/03/31 02:09:03;;;;;;;12.35;1.40;;;11.10;92.60;;;;;;4950351;28;86965;-76
2023/03/31 02:25:16;;;;;;;10.52;1.25;;;11.00;92.20;;;;;;4949506;28;86450;-76
2023/03/31 02:27:46;;;;;;;11.23;1.10;;;11.00;92.50;;;;;;4951139;28;86246;-76
2023/03/31 02:30:12;;;;;;;6.13;1.13;;;10.90;92.40;;;;;;4949928;28;87612;-76
2023/03/31 02:32:43;;;;;;;6.70;1.35;;;11.00;92.40;;;;;;4949691;28;86141;-77
2023/03/31 02:35:17;;;;;;;8.82;1.20;;;11.00;92.30;;;;;;4951992;28;86626;-77
2023/03/31 02:37:45;;;;;;;12.40;1.85;;;10.90;92.30;;;;;;4950350;28;86428;-76
2023/03/31 02:40:21;;;;;;;6.32;0.70;;;10.90;92.60;;;;;;4950201;28;86876;-76
2023/03/31 02:42:48;;;;;;;10.20;1.05;;;10.90;92.60;;;;;;4950289;28;86593;-76
2023/03/31 02:45:52;;;;;;;6.68;1.10;;;10.90;92.70;;;;;;4951577;28;86143;-76
2023/03/31 02:48:26;;;;;;;;;;;10.80;92.70;;;;;;4938025;28;89202;-77
2023/03/31 02:51:07;;;;;;;10.75;1.48;;;10.90;92.60;;;;;;4955794;28;87241;-76
2023/03/31 02:53:57;;;;;;;11.45;1.63;;;10.80;92.50;;;;;;4964339;28;88994;-77
2023/03/31 02:56:47;;;;;;;9.40;1.13;;;10.80;92.60;;;;;;4957423;28;86384;-77
2023/03/31 02:59:49;;;;;;;7.40;0.95;;;10.80;92.40;;;;;;4957200;28;86499;-76
2023/03/31 03:02:53;;;;;;;7.68;1.20;;;10.80;92.50;;;;;;4957196;28;87172;-77
2023/03/31 03:05:44;;;;;;;6.53;0.90;;;10.90;92.40;;;;;;4957015;28;86884;-76
2023/03/31 03:08:45;;;;;;;5.72;1.13;;;10.90;92.40;;;;;;4957461;28;86240;-77
2023/03/31 03:11:22;;;;;;;8.88;1.05;;;10.90;92.30;;;;;;4957457;28;86539;-77
2023/03/31 03:17:26;;;;;;;5.75;0.80;;;10.90;91.60;;;;;;4955987;28;86262;-76
2023/03/31 03:19:57;;;;;;;3.78;0.70;;;10.90;92.00;;;;;;4953252;28;86201;-76
2023/03/31 03:22:23;;;;;;;5.50;1.27;;;10.90;91.90;;;;;;4950375;28;86437;-76
2023/03/31 03:24:50;;;;;;;6.50;1.02;;;10.90;91.60;;;;;;4951697;28;87576;-76
2023/03/31 03:27:16;;;;;;;6.03;1.00;;;10.80;91.70;;;;;;4948307;28;91435;-77
2023/03/31 03:29:42;;;;;;;5.55;0.73;;;10.80;91.60;;;;;;4951063;28;86544;-77
2023/03/31 03:32:08;;;;;;;4.25;0.82;;;10.80;91.60;;;;;;4950149;28;86704;-76
2023/03/31 03:34:34;;;;;;;6.47;0.80;;;10.80;91.60;;;;;;4948960;28;86373;-77
2023/03/31 03:37:00;;;;;;;9.95;1.23;;;10.80;91.60;;;;;;4951929;28;86620;-76
2023/03/31 03:39:25;;;;;;;5.35;1.00;;;10.70;91.60;;;;;;4966118;28;86174;-77
2023/03/31 03:41:51;;;;;;;6.03;1.13;;;10.80;91.50;;;;;;4963820;28;86707;-78
2023/03/31 03:44:17;;;;;;;8.80;1.20;;;10.80;91.60;;;;;;4948780;28;86869;-76
2023/03/31 03:46:42;;;;;;;6.43;1.33;;;10.80;91.40;;;;;;4950268;28;87838;-77
2023/03/31 03:49:08;;;;;;;5.63;0.75;;;10.80;91.40;;;;;;4960927;28;86600;-76
2023/03/31 03:51:34;;;;;;;7.38;1.05;;;10.80;91.20;;;;;;4927103;28;86963;-77
2023/03/31 03:54:00;;;;;;;4.85;0.68;;;10.80;91.20;;;;;;4944118;28;87203;-77
2023/03/31 03:56:26;;;;;;;3.45;0.70;;;10.80;91.50;;;;;;4945312;28;87516;-76
2023/03/31 03:58:51;;;;;;;3.45;1.00;;;10.80;91.20;;;;;;4954448;28;86515;-76
2023/03/31 04:01:17;;;;;;;5.25;1.02;;;10.80;91.30;;;;;;4963405;28;86425;-76
2023/03/31 04:03:43;;;;;;;9.02;1.13;;;10.80;91.30;;;;;;4944273;28;90556;-77
2023/03/31 04:06:09;;;;;;;6.22;1.27;;;10.90;91.10;;;;;;4979876;28;88373;-77
2023/03/31 04:08:35;;;;;;;7.70;0.95;;;10.90;91.10;;;;;;4967216;28;86487;-77
2023/03/31 04:11:01;;;;;;;7.18;1.30;;;10.90;91.00;;;;;;4958920;28;86197;-77
2023/03/31 04:20:12;;;;;;;11.02;1.45;;;10.90;91.30;;;;;;4946494;28;86220;-77
2023/03/31 04:22:40;;;;;;;8.52;1.30;;;10.90;91.20;;;;;;4948418;28;86488;-76
2023/03/31 04:25:15;;;;;;;4.95;0.82;;;10.90;91.30;;;;;;4949145;28;88105;-76
2023/03/31 04:27:49;;;;;;;4.88;0.82;;;10.90;91.10;;;;;;4948671;28;86979;-77
2023/03/31 04:30:22;;;;;;;5.45;0.98;;;11.00;91.10;;;;;;4947838;28;87861;-76
2023/03/31 04:32:53;;;;;;;11.83;1.43;;;11.00;91.00;;;;;;4979775;28;85892;-77
2023/03/31 04:35:20;;;;;;;9.50;1.20;;;11.00;91.40;;;;;;4948151;28;87029;-77
2023/03/31 04:37:48;;;;;;;5.88;0.75;;;11.00;91.30;;;;;;4949238;28;87189;-77
2023/03/31 04:50:38;;;;;;;7.80;1.73;;;11.00;90.90;;;;;;4966682;28;86429;-77
2023/03/31 04:53:04;;;;;;;8.95;1.88;;;11.10;90.80;;;;;;4957060;28;86667;-77
2023/03/31 04:55:31;;;;;;;9.60;1.50;;;11.10;90.70;;;;;;4948754;28;86585;-75
2023/03/31 04:57:56;;;;;;;10.60;1.40;;;11.10;90.80;;;;;;4950719;28;87391;-76
2023/03/31 05:00:22;;;;;;;9.10;1.00;;;11.20;90.80;;;;;;4953638;28;86534;-76
2023/03/31 05:26:24;;;;;;;12.07;1.45;;;11.00;92.10;;;;;;4951343;28;86223;-76
2023/03/31 05:28:53;;;;;;;10.38;1.42;;;10.90;92.30;;;;;;4959541;28;86340;-75
2023/03/31 05:31:19;;;;;;;8.48;1.20;;;10.90;92.40;;;;;;4970574;28;89246;-76
2023/03/31 05:33:45;;;;;;;8.75;1.48;;;10.90;92.30;;;;;;4970833;28;86708;-76
2023/03/31 05:36:16;;;;;;;9.05;1.33;;;10.90;92.20;;;;;;4951882;28;87455;-76
2023/03/31 05:38:42;;;;;;;8.25;1.30;;;11.00;92.20;;;;;;4967244;28;86218;-76
2023/03/31 05:44:30;;;;;;;9.57;1.25;;;11.00;92.10;;;;;;4963862;28;87262;-76
2023/03/31 05:46:56;;;;;;;8.05;0.90;;;11.00;92.20;;;;;;4972779;28;86665;-76
2023/03/31 05:49:22;;;;;;;7.80;1.30;;;11.00;92.10;;;;;;4966356;28;86254;-76
2023/03/31 05:51:47;;;;;;;10.38;1.20;;;11.00;91.90;;;;;;4951174;28;86261;-76
2023/03/31 05:54:13;;;;;;;5.97;1.05;;;11.00;92.30;;;;;;4950599;28;86912;-76
2023/03/31 05:56:39;;;;;;;9.52;1.17;;;11.00;91.80;;;;;;4965449;28;87084;-77
2023/03/31 05:59:17;;;;;;;8.95;1.00;;;11.00;91.60;;;;;;4970448;28;85727;-76
2023/03/31 06:01:43;;;;;;;11.85;1.27;;;11.10;91.50;;;;;;4963876;28;86340;-76
2023/03/31 06:04:09;;;;;;;3.53;1.05;;;11.10;91.10;;;;;;4953381;28;87615;-77
2023/03/31 06:06:36;;;;;;;5.28;1.20;;;11.20;91.00;;;;;;4971401;28;87001;-76
2023/03/31 06:09:04;;;;;;;10.20;1.38;;;11.20;90.80;;;;;;4964975;28;86365;-76
2023/03/31 06:18:13;;;;;;;5.72;1.10;;;11.30;90.70;;;;;;4968037;28;86040;-77
2023/03/31 06:20:40;;;;;;;8.15;1.50;;;11.40;90.50;;;;;;4952761;28;86208;-76
2023/03/31 06:23:06;;;;;;;10.95;1.88;;;11.40;90.40;;;;;;4960407;28;86222;-77
2023/03/31 06:25:31;;;;;;;6.22;1.00;;;11.50;90.20;;;;;;4969661;28;87580;-77
2023/03/31 06:27:57;;;;;;;10.93;1.25;;;11.50;90.20;;;;;;4967582;28;88947;-77
2023/03/31 06:30:22;;;;;;;10.15;1.60;;;11.50;90.20;;;;;;4970254;28;86578;-76
2023/03/31 06:32:48;;;;;;;12.90;2.55;;;11.60;89.70;;;;;;4953021;28;86398;-77
2023/03/31 06:35:14;;;;;;;8.73;1.83;;;11.60;90.40;;;;;;4961075;28;87463;-77
2023/03/31 06:37:40;;;;;;;8.07;1.58;;;11.60;90.20;;;;;;4968569;28;86577;-77
2023/03/31 06:40:06;;;;;;;12.75;2.00;;;11.60;90.20;;;;;;4985275;28;86750;-77
2023/03/31 06:42:32;;;;;;;11.45;1.67;;;11.60;90.00;;;;;;4969866;28;86482;-77
2023/03/31 06:44:57;;;;;;;12.63;2.00;;;11.70;90.00;;;;;;4969578;28;86526;-77
2023/03/31 06:54:22;;;;;;;15.82;1.80;;;11.70;90.00;;;;;;4970776;28;85777;-77
2023/03/31 06:56:48;;;;;;;14.38;1.92;;;11.80;90.10;;;;;;4970538;28;87345;-76
2023/03/31 06:59:13;;;;;;;10.95;2.10;;;11.80;90.00;;;;;;4968260;28;87178;-77
2023/03/31 07:01:41;;;;;;;11.23;1.73;;;11.80;89.70;;;;;;4970772;28;86180;-77
2023/03/31 07:04:07;;;;;;;13.98;2.30;;;11.90;88.10;;;;;;4969330;28;86065;-79
2023/03/31 07:06:34;;;;;;;14.63;1.77;;;11.90;88.40;;;;;;4972481;28;87423;-79
2023/03/31 07:08:59;;;;;;;12.15;1.98;;;12.00;87.90;;;;;;4971690;28;89126;-79
2023/03/31 07:11:31;;;;;;;12.60;1.80;;;12.00;87.50;;;;;;4969308;28;86272;-79
2023/03/31 07:13:57;;;;;;;10.30;1.75;;;12.10;86.70;;;;;;4992955;28;85914;-80
2023/03/31 07:16:22;;;;;;;11.32;1.73;;;12.20;87.20;;;;;;4953015;28;90752;-80
2023/03/31 07:18:49;;;;;;;14.75;1.77;;;12.30;86.50;;;;;;4967504;28;89329;-80
2023/03/31 07:21:15;;;;;;;14.52;1.77;;;12.40;85.80;;;;;;4917372;28;88659;-80
2023/03/31 07:27:08;;;;;;;15.50;1.95;;;12.50;85.90;;;;;;4968743;28;86514;-78
2023/03/31 07:29:34;;;;;;;19.60;2.85;;;12.50;84.80;;;;;;4967522;28;87395;-78
2023/03/31 07:31:59;;;;;;;15.77;2.97;;;12.60;83.80;;;;;;4968252;28;86320;-78
2023/03/31 07:34:26;;;;;;;16.35;2.53;;;12.60;84.00;;;;;;4962769;28;85806;-78
2023/03/31 07:36:54;;;;;;;17.48;2.53;;;12.60;83.10;;;;;;4948280;28;88032;-78
2023/03/31 07:39:20;;;;;;;12.52;2.20;;;12.70;82.30;;;;;;4969922;28;89861;-78
2023/03/31 07:41:46;;;;;;;15.23;3.33;;;12.70;83.90;;;;;;4983072;28;86600;-77
2023/03/31 07:44:12;;;;;;;16.45;2.17;;;12.70;83.10;;;;;;4968857;28;86188;-76
2023/03/31 07:46:38;;;;;;;13.13;2.35;;;12.80;82.50;;;;;;4959191;28;90810;-76
2023/03/31 07:49:06;;;;;;;15.60;1.92;;;12.80;83.20;;;;;;4947988;28;86601;-75
2023/03/31 07:51:32;;;;;;;12.57;2.13;;;12.90;81.30;;;;;;4950592;28;86884;-76
2023/03/31 07:53:58;;;;;;;11.45;2.13;;;13.10;82.90;;;;;;4948012;28;86582;-76
2023/03/31 07:56:24;;;;;;;16.15;2.90;;;13.20;82.50;;;;;;4973432;28;90494;-75
2023/03/31 07:58:51;;;;;;;18.45;2.70;;;13.30;80.30;;;;;;4958374;28;88631;-76
2023/03/31 08:01:19;;;;;;;10.18;1.80;;;13.30;79.50;;;;;;4974430;28;86197;-76
2023/03/31 08:03:46;;;;;;;13.48;2.28;;;13.30;79.20;;;;;;4975949;28;86446;-76
2023/03/31 08:06:18;;;;;;;12.02;2.15;;;13.40;78.90;;;;;;4958393;28;90314;-75
2023/03/31 08:08:43;;;;;;;11.07;2.58;;;13.40;76.90;;;;;;4974724;28;86821;-76
2023/03/31 08:11:09;;;;;;;14.23;2.45;;;13.50;77.10;;;;;;4975010;28;86331;-76
2023/03/31 08:16:56;;;;;;;16.20;2.63;;;13.40;76.80;;;;;;4973377;28;86316;-75
2023/03/31 08:19:23;;;;;;;16.00;2.38;;;13.40;77.70;;;;;;4975284;28;86135;-76
2023/03/31 08:21:48;;;;;;;16.25;3.53;;;13.40;75.40;;;;;;4974712;28;86148;-76
2023/03/31 08:24:14;;;;;;;16.17;2.28;;;13.30;76.90;;;;;;4974225;28;86896;-76
2023/03/31 08:50:19;;;;;;;12.98;2.10;;;13.40;75.10;;;;;;4939357;28;86830;-77
2023/03/31 08:53:03;;;;;;;14.18;2.85;;;13.40;75.10;;;;;;4966955;28;86108;-77
2023/03/31 08:55:53;;;;;;;19.60;2.70;;;13.50;75.00;;;;;;4960799;28;87270;-77
2023/03/31 08:58:18;;;;;;;17.65;3.55;;;13.60;74.40;;;;;;4876635;28;88447;-77
2023/03/31 09:14:59;;;;;;;15.80;2.08;;;13.50;74.30;;;;;;4906651;28;86540;-77
2023/03/31 09:17:40;;;;;;;13.38;2.50;;;13.40;77.00;;;;;;4912830;28;85807;-77
2023/03/31 09:20:15;;;;;;;13.10;2.00;;;13.30;76.70;;;;;;4915690;28;87005;-77
2023/03/31 09:22:46;;;;;;;17.85;2.20;;;13.20;78.80;;;;;;4915070;28;89067;-77
2023/03/31 09:25:22;;;;;;;12.50;1.52;;;13.10;76.10;;;;;;4898107;28;86687;-77
2023/03/31 09:27:51;;;;;;;8.48;2.00;;;12.80;80.10;;;;;;4908550;28;86006;-76
2023/03/31 09:30:24;;;;;;;16.63;2.03;;;12.80;80.60;;;;;;4916094;28;95168;-77
2023/03/31 09:32:58;;;;;;;9.70;2.20;;;12.80;82.50;;;;;;4916256;28;87275;-76
2023/03/31 09:35:25;;;;;;;11.27;1.52;;;12.90;78.20;;;;;;4940658;28;86246;-77
2023/03/31 09:37:52;;;;;;;6.78;1.10;;;12.80;75.10;;;;;;4990595;28;86887;-76
2023/03/31 09:40:26;;;;;;;8.38;1.63;;;12.80;77.70;;;;;;4946595;28;87519;-77
2023/03/31 09:43:12;;;;;;;11.55;2.17;;;12.80;77.70;;;;;;4948624;28;87020;-76
2023/03/31 09:45:38;;;;;;;8.10;1.40;;;12.80;78.10;;;;;;4894913;28;86553;-77
2023/03/31 09:48:11;;;;;;;6.38;1.20;;;12.80;78.70;;;;;;4919131;28;86105;-76
2023/03/31 09:50:47;;;;;;;9.30;1.50;;;12.80;79.00;;;;;;4918670;28;86658;-77
2023/03/31 09:53:27;;;;;;;6.97;1.58;;;12.80;74.60;;;;;;4909112;28;87095;-76
2023/03/31 09:55:59;;;;;;;8.23;1.30;;;12.80;74.00;;;;;;4918931;28;86228;-77
2023/03/31 10:01:55;;;;;;;9.63;1.50;;;12.90;76.10;;;;;;4917117;28;86278;-77
2023/03/31 10:04:27;;;;;;;5.28;1.08;;;12.90;75.20;;;;;;4917057;28;88508;-76
2023/03/31 10:06:54;;;;;;;10.55;1.63;;;12.80;77.40;;;;;;4917944;28;88484;-77
2023/03/31 10:09:29;;;;;;;12.70;1.70;;;12.90;78.40;;;;;;4918071;28;87890;-76
2023/03/31 10:12:25;;;;;;;12.82;1.60;;;12.90;78.30;;;;;;4917022;28;89533;-77
2023/03/31 10:14:53;;;;;;;11.63;2.45;;;13.00;77.60;;;;;;4900688;28;91364;-77
2023/03/31 10:17:23;;;;;;;16.80;2.63;;;13.10;78.30;;;;;;4917273;28;89380;-77
2023/03/31 10:19:53;;;;;;;14.77;2.15;;;13.20;78.80;;;;;;4917325;28;87863;-76
2023/03/31 10:22:21;;;;;;;19.75;2.97;;;13.30;77.20;;;;;;4918828;28;89909;-77
2023/03/31 10:24:50;;;;;;;15.57;2.53;;;13.40;76.80;;;;;;4968669;28;87961;-77
2023/03/31 10:27:26;;;;;;;12.70;2.45;;;13.60;78.50;;;;;;4969604;28;92740;-77
2023/03/31 10:30:03;;;;;;;14.57;2.92;;;13.70;75.80;;;;;;4983751;28;87757;-77
2023/03/31 10:32:30;;;;;;;14.57;3.22;;;13.80;74.40;;;;;;4970240;28;87849;-77
2023/03/31 10:35:04;;;;;;;11.93;2.85;;;13.90;73.90;;;;;;4968868;28;87675;-77
2023/03/31 10:37:30;;;;;;;21.52;2.40;;;14.10;73.00;;;;;;4968151;28;88216;-79
2023/03/31 10:40:19;;;;;;;16.40;2.58;;;14.10;73.90;;;;;;4972365;28;88269;-78
2023/03/31 10:42:49;;;;;;;17.45;2.10;;;13.90;72.20;;;;;;4998479;28;90149;-77
2023/03/31 10:45:27;;;;;;;15.88;2.30;;;13.70;74.70;;;;;;4944804;28;93055;-76
2023/03/31 10:47:58;;;;;;;14.38;3.08;;;13.60;75.30;;;;;;4945946;28;91782;-77
2023/03/31 10:50:30;;;;;;;20.10;2.70;;;13.40;78.40;;;;;;4942724;28;87612;-76
2023/03/31 10:53:11;;;;;;;16.75;2.83;;;13.20;78.90;;;;;;4944591;28;87765;-77
2023/03/31 10:56:07;;;;;;;18.65;3.03;;;13.10;79.50;;;;;;4947888;28;88433;-77
2023/03/31 10:59:05;;;;;;;14.23;2.58;;;13.20;79.20;;;;;;4953202;28;91444;-76
2023/03/31 11:18:50;;;;;;;11.68;2.17;;;13.90;71.80;;;;;;4968339;28;90510;-76
2023/03/31 11:21:31;;;;;;;15.10;2.45;;;13.90;70.10;;;;;;4946685;28;93675;-77
2023/03/31 11:24:18;;;;;;;15.52;2.22;;;14.00;71.50;;;;;;4948318;28;87897;-77
2023/03/31 11:27:11;;;;;;;12.50;1.55;;;14.10;71.40;;;;;;4947720;28;87696;-77
2023/03/31 11:29:50;;;;;;;16.55;2.30;;;14.30;69.70;;;;;;4949863;28;87262;-77
2023/03/31 11:32:54;;;;;;;15.20;2.38;;;14.40;68.70;;;;;;4974136;28;90797;-77
2023/03/31 11:35:37;;;;;;;12.27;2.08;;;14.50;68.40;;;;;;4914894;28;88573;-77
2023/03/31 11:38:20;;;;;;;8.70;1.40;;;14.50;67.20;;;;;;4905681;28;88611;-77
2023/03/31 11:41:03;;;;;;;11.35;1.95;;;14.60;68.40;;;;;;4919003;28;91704;-77
2023/03/31 11:44:03;;;;;;;8.03;1.20;;;14.70;65.20;;;;;;4934287;28;87091;-76
2023/03/31 11:46:58;;;;;;;8.50;1.60;;;14.80;65.10;;;;;;4886503;28;88208;-77
2023/03/31 11:49:29;;;;;;;11.95;1.40;;;15.00;65.20;;;;;;4871109;28;87947;-77
2023/03/31 11:52:00;;;;;;;9.85;1.50;;;15.10;64.90;;;;;;4889208;28;87271;-77
2023/03/31 12:08:02;;;;;;;12.20;2.65;;;15.00;66.90;;;;;;4885841;28;88286;-77
2023/03/31 12:10:35;;;;;;;10.18;1.48;;;15.10;68.70;;;;;;4900429;28;89478;-77
2023/03/31 12:13:31;;;;;;;8.63;1.55;;;15.30;67.30;;;;;;4915470;28;87775;-77
2023/03/31 12:26:37;;;;;;;10.45;1.55;;;14.80;65.90;;;;;;4946359;28;87442;-77
2023/03/31 12:29:24;;;;;;;7.75;1.60;;;14.80;66.20;;;;;;4947526;28;87805;-77
2023/03/31 12:31:54;;;;;;;9.00;1.58;;;14.80;67.40;;;;;;4946176;28;88633;-77
2023/03/31 12:34:23;;;;;;;6.97;1.42;;;14.70;64.60;;;;;;4944295;28;89723;-77
2023/03/31 12:36:51;;;;;;;7.50;1.50;;;14.70;65.20;;;;;;4946705;28;88152;-77
2023/03/31 12:39:39;;;;;;;14.63;2.08;;;14.70;67.30;;;;;;4967556;28;91936;-76
2023/03/31 12:42:05;;;;;;;5.72;1.20;;;14.80;66.40;;;;;;4972534;28;90373;-76
2023/03/31 12:45:08;;;;;;;12.40;1.65;;;14.80;65.20;;;;;;4952139;28;88214;-78
2023/03/31 12:48:02;;;;;;;9.40;1.85;;;14.90;65.80;;;;;;4947328;28;87525;-77
2023/03/31 12:50:34;;;;;;;9.18;1.17;;;15.10;64.90;;;;;;4947072;28;87656;-78
2023/03/31 12:53:17;;;;;;;9.65;1.40;;;15.10;65.60;;;;;;4947093;28;89511;-78
2023/03/31 13:02:32;;;;;;;6.32;1.10;;;14.90;65.20;;;;;;4945311;28;87505;-78
2023/03/31 13:04:58;;;;;;;10.35;1.10;;;14.70;66.00;;;;;;4945152;28;88825;-78
2023/03/31 13:07:26;;;;;;;10.70;1.70;;;14.30;68.80;;;;;;4950798;28;87886;-77
2023/03/31 13:10:13;;;;;;;7.65;1.52;;;14.00;68.90;;;;;;4957284;28;87576;-78
2023/03/31 13:12:39;;;;;;;12.20;1.95;;;13.90;72.30;;;;;;4993171;28;87503;-78
2023/03/31 13:15:13;;;;;;;13.05;1.95;;;13.70;74.50;;;;;;4964946;28;90099;-78
2023/03/31 13:17:40;;;;;;;14.50;1.40;;;13.30;77.70;;;;;;4952851;28;88416;-77
2023/03/31 13:23:35;;;;;;;9.63;1.58;;;12.90;81.70;;;;;;4961740;28;86899;-78
2023/03/31 13:26:02;;;;;;;15.32;2.65;;;12.70;83.30;;;;;;4999792;28;90278;-77
2023/03/31 13:28:41;;;;;;;12.80;1.95;;;12.60;85.40;;;;;;4968765;28;88323;-77
2023/03/31 13:31:10;;;;;;;8.15;1.90;;;12.60;85.40;;;;;;4966324;28;88566;-77
2023/03/31 13:41:03;;;;;;;14.05;1.67;;;12.00;90.50;;;;;;4954471;28;89070;-78
2023/03/31 13:44:03;;;;;;;7.88;1.17;;;12.10;91.60;;;;;;4968377;28;87528;-77
2023/03/31 13:46:50;;;;;;;8.68;1.30;;;12.20;90.70;;;;;;4961870;28;87207;-77
2023/03/31 13:52:00;;;;;;;7.20;0.82;;;12.20;88.90;;;;;;4948644;28;87466;-77
2023/03/31 13:54:50;;;;;;;7.43;1.58;;;12.20;88.20;;;;;;4950882;28;87454;-78
2023/03/31 13:57:50;;;;;;;7.40;1.00;;;12.20;90.00;;;;;;4969584;28;92507;-77
2023/03/31 14:01:02;;;;;;;7.93;0.80;;;12.10;90.10;;;;;;4971172;28;96768;-78
2023/03/31 14:03:47;;;;;;;10.00;1.00;;;12.10;90.30;;;;;;4965246;28;93811;-77
2023/03/31 14:06:24;;;;;;;9.52;1.58;;;12.20;90.10;;;;;;4967351;28;87839;-77
2023/03/31 14:09:04;;;;;;;9.85;1.40;;;12.30;89.40;;;;;;4968010;28;87655;-77
2023/03/31 14:25:36;;;;;;;8.50;1.27;;;12.80;84.30;;;;;;4948682;28;91968;-77
2023/03/31 14:28:37;;;;;;;3.53;0.75;;;12.70;84.30;;;;;;4948214;28;88501;-78
2023/03/31 14:31:20;;;;;;;6.80;0.70;;;12.70;82.60;;;;;;4950136;28;88421;-77
2023/03/31 14:34:08;;;;;;;9.00;1.02;;;12.80;83.50;;;;;;4991173;28;90930;-77
2023/03/31 14:40:16;;;;;;;5.22;1.05;;;12.90;82.80;;;;;;4947086;28;91921;-78
2023/03/31 14:42:48;;;;;;;8.98;1.20;;;12.90;83.10;;;;;;4948387;28;87777;-78
2023/03/31 14:45:25;;;;;;;8.93;1.00;;;12.90;83.40;;;;;;4947975;28;88288;-78
2023/03/31 14:48:12;;;;;;;1.98;0.50;;;12.90;82.30;;;;;;4946287;28;88226;-77
2023/03/31 14:54:01;;;;;;;2.65;0.75;;;12.80;81.90;;;;;;4949134;28;87046;-77
2023/03/31 14:56:30;;;;;;;3.47;0.60;;;12.70;84.20;;;;;;4947237;28;87479;-78
2023/03/31 14:58:56;;;;;;;4.05;0.50;;;12.80;84.10;;;;;;4947183;28;88592;-77
2023/03/31 15:01:27;;;;;;;6.55;0.75;;;12.80;83.30;;;;;;4946892;28;89235;-77
2023/03/31 15:03:54;;;;;;;3.35;0.68;;;12.70;80.60;;;;;;4963135;28;87819;-78
2023/03/31 15:06:24;;;;;;;1.80;0.47;;;12.70;80.40;;;;;;4955035;28;90233;-77
2023/03/31 15:15:44;;;;;;;3.70;0.80;;;12.60;79.00;;;;;;4955750;28;87835;-79
2023/03/31 15:18:12;;;;;;;2.45;0.52;;;12.60;80.30;;;;;;4956984;28;87260;-79
2023/03/31 15:20:40;;;;;;;1.92;0.40;;;12.60;78.40;;;;;;4938205;28;92023;-78
2023/03/31 15:23:26;;;;;;;4.45;0.50;;;12.60;80.20;;;;;;4954618;28;88848;-78
2023/03/31 15:29:47;;;;;;;2.53;0.63;;;12.50;80.40;;;;;;4964636;28;87946;-78
2023/03/31 15:32:28;;;;;;;1.38;0.32;;;12.40;80.80;;;;;;4923571;28;88726;-77
2023/03/31 15:34:55;;;;;;;2.30;0.40;;;12.40;82.10;;;;;;4925202;28;87572;-78
2023/03/31 15:37:27;;;;;;;2.22;0.50;;;12.40;82.80;;;;;;4920752;28;87700;-77
2023/03/31 15:39:56;;;;;;;3.03;0.50;;;12.30;81.80;;;;;;4915172;28;89235;-77
2023/03/31 15:42:23;;;;;;;5.18;1.38;;;12.20;85.30;;;;;;4916125;28;88123;-77
2023/03/31 15:59:26;;;;;;;4.68;0.60;;;12.00;84.40;;;;;;4890777;28;87902;-77
2023/03/31 16:01:53;;;;;;;8.30;1.25;;;11.90;86.20;;;;;;4873168;28;87234;-77
2023/03/31 16:04:19;;;;;;;3.20;0.50;;;11.90;87.30;;;;;;4895262;28;88213;-77
2023/03/31 16:07:07;;;;;;;3.55;0.43;;;11.90;87.60;;;;;;4896718;28;88549;-76
2023/03/31 16:09:57;;;;;;;4.50;0.70;;;11.70;88.70;;;;;;4940188;28;93036;-77
2023/03/31 16:12:42;;;;;;;5.30;1.20;;;11.60;90.50;;;;;;4947872;28;87620;-77
2023/03/31 16:15:18;;;;;;;3.15;0.50;;;11.50;90.10;;;;;;4946159;28;87238;-77
2023/03/31 16:17:58;;;;;;;4.93;0.60;;;11.50;90.40;;;;;;4947942;28;88934;-77
2023/03/31 16:20:39;;;;;;;4.70;0.70;;;11.60;90.60;;;;;;4946722;28;87882;-77
2023/03/31 16:29:48;;;;;;;7.22;1.02;;;11.60;90.10;;;;;;4945190;28;87587;-77
2023/03/31 16:32:17;;;;;;;2.63;0.75;;;11.60;88.70;;;;;;4946346;28;87839;-77
2023/03/31 16:34:58;;;;;;;5.88;0.90;;;11.60;87.90;;;;;;4946727;28;87604;-77
2023/03/31 16:37:25;;;;;;;4.32;1.10;;;11.60;88.70;;;;;;4945479;28;87737;-77
2023/03/31 16:39:51;;;;;;;7.75;0.77;;;11.60;86.70;;;;;;4946191;28;88745;-77
2023/03/31 16:42:17;;;;;;;7.18;0.88;;;11.60;86.80;;;;;;4947046;28;88787;-76
2023/03/31 16:44:44;;;;;;;7.35;1.38;;;11.70;86.50;;;;;;4945398;28;87249;-77
2023/03/31 16:47:10;;;;;;;13.15;1.75;;;11.70;85.20;;;;;;4945906;28;87549;-77
2023/03/31 16:49:36;;;;;;;4.70;0.70;;;11.70;84.60;;;;;;4947731;28;89211;-77
2023/03/31 16:52:02;;;;;;;6.90;0.98;;;11.70;83.10;;;;;;4945297;28;89155;-76
2023/03/31 16:54:27;;;;;;;4.18;0.70;;;11.70;82.80;;;;;;4950776;28;87709;-77
2023/03/31 16:56:53;;;;;;;3.95;0.77;;;11.80;80.70;;;;;;4948922;28;90507;-77
2023/03/31 16:59:19;;;;;;;4.57;0.73;;;11.80;80.40;;;;;;4952890;28;91445;-77
2023/03/31 17:01:45;;;;;;;5.88;0.90;;;11.90;79.70;;;;;;4954646;28;91040;-77
2023/03/31 17:04:11;;;;;;;2.75;0.68;;;11.90;80.10;;;;;;4939655;28;87424;-77
2023/03/31 17:06:36;;;;;;;6.47;0.88;;;11.90;80.90;;;;;;4940483;28;87741;-77
2023/03/31 17:09:02;;;;;;;5.53;0.90;;;11.90;80.10;;;;;;4939489;28;88187;-77
2023/03/31 17:11:29;;;;;;;3.53;0.77;;;11.90;81.10;;;;;;4970272;28;91026;-77
2023/03/31 17:13:55;;;;;;;7.78;2.55;;;11.90;81.00;;;;;;4939740;28;88459;-78
2023/03/31 17:16:21;;;;;;;6.35;0.98;;;11.80;81.70;;;;;;4970743;28;90964;-78
2023/03/31 17:18:47;;;;;;;6.75;1.92;;;11.80;82.10;;;;;;4938292;28;91338;-76
2023/03/31 17:21:17;;;;;;;3.63;0.70;;;11.70;82.40;;;;;;4939191;28;88879;-77
2023/03/31 17:23:42;;;;;;;4.80;1.30;;;11.70;82.90;;;;;;4970784;28;87611;-77
2023/03/31 17:36:50;;;;;;;5.75;0.95;;;11.70;83.70;;;;;;4939122;28;87908;-78
2023/03/31 17:39:16;;;;;;;5.25;0.80;;;11.60;84.60;;;;;;4938357;28;92990;-76
2023/03/31 17:41:41;;;;;;;6.88;0.90;;;11.50;86.30;;;;;;4938925;28;89662;-77
2023/03/31 17:44:07;;;;;;;5.20;0.77;;;11.50;85.80;;;;;;4970289;28;92318;-77
2023/03/31 17:46:34;;;;;;;4.25;0.95;;;11.50;86.20;;;;;;4938740;28;87684;-77
2023/03/31 17:49:00;;;;;;;3.85;0.70;;;11.50;86.60;;;;;;4970291;28;88654;-78
2023/03/31 17:51:26;;;;;;;6.25;1.55;;;11.40;87.20;;;;;;4970556;28;91307;-78
2023/03/31 17:53:52;;;;;;;6.13;1.00;;;11.40;86.90;;;;;;4939302;28;88328;-78